This is the latest recevied weather packets stored in our database for station/object WB0RXX. If no packets are shown the sender has not sent any weather packets the latest 10 day(s).
| Time | Temp. | Humidity | Pressure | Rain* | Wind** | Luminosity | Snow |
|---|---|---|---|---|---|---|---|
| 1777793420 | 11.67° C | 62% | 1006.6 hPa | 0 mm | - | - | - |
| 1777792819 | 11.67° C | 61% | 1006.6 hPa | 0 mm | - | - | - |
| 1777792204 | 11.67° C | 60% | 1006.6 hPa | 0 mm | - | - | - |
| 1777791603 | 11.67° C | 58% | 1006.6 hPa | 0 mm | - | - | - |
| 1777791004 | 12.22° C | 56% | 1006.5 hPa | 0 mm | - | - | - |
| 1777790403 | 12.22° C | 54% | 1006.5 hPa | 0 mm | - | - | - |
| 1777789819 | 12.78° C | 54% | 1006.5 hPa | 0 mm | - | - | - |
| 1777789205 | 13.33° C | 51% | 1006.4 hPa | 0 mm | - | - | - |
| 1777788604 | 13.33° C | 52% | 1006.5 hPa | 0 mm | - | - | - |
| 1777788004 | 13.89° C | 48% | 1006.5 hPa | 0 mm | - | - | - |
| 1777787404 | 13.89° C | 48% | 1006.6 hPa | 0 mm | - | - | - |
| 1777786804 | 14.44° C | 46% | 1006.5 hPa | 0 mm | - | - | - |
| 1777786220 | 14.44° C | 45% | 1006.5 hPa | 0 mm | - | - | - |
| 1777785604 | 15° C | 44% | 1006.7 hPa | 0 mm | - | - | - |
| 1777785003 | 15° C | 44% | 1006.6 hPa | 0 mm | - | - | - |
| 1777784407 | 15° C | 44% | 1006.6 hPa | 0 mm | - | - | - |
| 1777783804 | 15.56° C | 45% | 1006.7 hPa | 0 mm | - | - | - |
| 1777783205 | 15.56° C | 43% | 1006.7 hPa | 0 mm | - | - | - |
| 1777782603 | 16.11° C | 42% | 1006.8 hPa | 0 mm | - | - | - |
| 1777782005 | 16.67° C | 43% | 1006.8 hPa | 0 mm | - | - | - |
| 1777781404 | 16.67° C | 43% | 1006.9 hPa | 0 mm | - | - | - |
| 1777780819 | 16.11° C | 46% | 1007 hPa | 0 mm | - | - | - |
| 1777780203 | 16.11° C | 47% | 1007.1 hPa | 0 mm | - | - | - |
| 1777779604 | 16.67° C | 49% | 1007.3 hPa | 0 mm | - | - | - |
| 1777779003 | 17.78° C | 38% | 1007.7 hPa | 0 mm | - | - | - |
* Rain latest hour (hover to see other rain measurements)
** Current wind speed in m/s (hover to see current wind gust speed)